Time;durP1;ratioP1;P1;durP2;ratioP2;P2;SDS_P1;SDS_P2;PMS_P1;PMS_P2;Temp;Humidity;BMP_temperature;BMP_pressure;BME280_temperature;BME280_humidity;BME280_pressure;Samples;Min_cycle;Max_cycle;Signal;HPM_P1;HPM_P2
2021/10/04 00:01:00;;;;;;;1.65;1.20;;;18.30;68.70;;;;;;5052240;28;20178;-72
2021/10/04 00:03:26;;;;;;;1.30;1.20;;;18.20;68.60;;;;;;5051994;28;20170;-73
2021/10/04 00:05:51;;;;;;;1.20;1.10;;;18.20;68.60;;;;;;5052365;28;20175;-72
2021/10/04 00:08:17;;;;;;;1.05;0.90;;;18.20;68.60;;;;;;5052096;28;20241;-74
2021/10/04 00:10:42;;;;;;;0.70;0.70;;;18.30;68.60;;;;;;5052501;28;20218;-72
2021/10/04 00:13:08;;;;;;;2.45;1.10;;;18.20;68.60;;;;;;5052218;28;20553;-70
2021/10/04 00:15:33;;;;;;;0.90;0.90;;;18.20;68.60;;;;;;5051880;28;20190;-70
2021/10/04 00:17:59;;;;;;;1.95;0.90;;;18.20;68.60;;;;;;5052132;28;20199;-71
2021/10/04 00:20:26;;;;;;;1.00;0.90;;;18.20;68.60;;;;;;5052447;28;20183;-73
2021/10/04 00:22:52;;;;;;;1.85;0.90;;;18.20;68.60;;;;;;5055340;28;20313;-74
2021/10/04 00:25:18;;;;;;;0.90;0.82;;;18.20;68.60;;;;;;5056629;28;20262;-73
2021/10/04 00:27:43;;;;;;;1.40;1.00;;;18.20;68.60;;;;;;5056695;28;20201;-72
2021/10/04 00:30:09;;;;;;;1.10;0.90;;;18.20;68.60;;;;;;5055359;28;20262;-69
2021/10/04 00:32:36;;;;;;;1.08;0.98;;;18.20;68.60;;;;;;5056357;28;20268;-72
2021/10/04 00:35:03;;;;;;;1.33;1.00;;;18.20;68.60;;;;;;5055941;28;20544;-70
2021/10/04 00:37:28;;;;;;;1.20;1.02;;;18.20;68.50;;;;;;5055449;28;20254;-72
2021/10/04 00:39:54;;;;;;;2.03;1.00;;;18.20;68.60;;;;;;5056146;28;20637;-75
2021/10/04 00:42:21;;;;;;;1.17;0.85;;;18.20;68.60;;;;;;5056012;28;20178;-73
2021/10/04 00:44:48;;;;;;;1.20;0.98;;;18.20;68.60;;;;;;5055267;28;20664;-74
2021/10/04 00:47:14;;;;;;;1.63;1.20;;;18.20;68.70;;;;;;5056076;28;20268;-72
2021/10/04 00:49:40;;;;;;;1.13;1.02;;;18.20;68.50;;;;;;5055963;28;20665;-73
2021/10/04 00:52:05;;;;;;;1.02;1.00;;;18.20;68.50;;;;;;5054785;28;20538;-71
2021/10/04 00:54:31;;;;;;;1.20;1.08;;;18.20;68.60;;;;;;5055814;28;20171;-72
2021/10/04 00:56:56;;;;;;;2.05;1.27;;;18.20;68.60;;;;;;5055731;28;20240;-71
2021/10/04 00:59:22;;;;;;;0.90;0.85;;;18.10;68.50;;;;;;5055211;28;20266;-70
2021/10/04 01:01:47;;;;;;;1.08;0.98;;;18.20;68.60;;;;;;5054312;28;20556;-72
2021/10/04 01:04:13;;;;;;;1.80;0.95;;;18.10;68.50;;;;;;5055670;28;20176;-70
2021/10/04 01:06:38;;;;;;;1.30;1.08;;;18.20;69.40;;;;;;5055213;28;20175;-73
2021/10/04 01:09:04;;;;;;;1.02;0.90;;;18.20;68.60;;;;;;5055531;28;20178;-72
2021/10/04 01:11:29;;;;;;;0.80;0.80;;;18.10;68.50;;;;;;5055705;28;20213;-70
2021/10/04 01:13:55;;;;;;;0.85;0.70;;;18.10;68.50;;;;;;5053314;28;20175;-70
2021/10/04 01:16:21;;;;;;;1.13;1.02;;;18.10;68.50;;;;;;5055671;28;20258;-69
2021/10/04 01:18:46;;;;;;;1.48;0.85;;;18.10;68.60;;;;;;5054671;28;20274;-71
2021/10/04 01:21:12;;;;;;;1.50;1.00;;;18.10;68.50;;;;;;5055011;28;20190;-72
2021/10/04 01:23:37;;;;;;;1.10;0.90;;;18.10;68.60;;;;;;5055298;28;20219;-72
2021/10/04 01:26:03;;;;;;;1.10;0.80;;;18.10;68.60;;;;;;5054567;28;20199;-73
2021/10/04 01:28:28;;;;;;;1.23;0.93;;;18.10;68.50;;;;;;5055472;28;20217;-69
2021/10/04 01:30:54;;;;;;;1.60;1.10;;;18.10;68.50;;;;;;5054970;28;20647;-71
2021/10/04 01:33:20;;;;;;;1.10;0.70;;;18.10;68.50;;;;;;5053214;28;20175;-69
2021/10/04 01:35:45;;;;;;;2.03;1.20;;;18.10;68.50;;;;;;5054997;28;20192;-71
2021/10/04 01:38:11;;;;;;;0.80;0.80;;;18.10;68.50;;;;;;5054956;28;20172;-72
2021/10/04 01:40:39;;;;;;;3.13;1.20;;;18.10;68.50;;;;;;5054237;28;20210;-72
2021/10/04 01:43:04;;;;;;;1.70;0.90;;;18.10;68.50;;;;;;5054734;28;20186;-75
2021/10/04 01:45:30;;;;;;;0.88;0.80;;;18.10;68.50;;;;;;5055120;28;20183;-72
2021/10/04 01:47:59;;;;;;;1.05;1.00;;;18.10;68.50;;;;;;5053919;28;20238;-74
2021/10/04 01:50:26;;;;;;;1.13;0.90;;;18.10;68.50;;;;;;5054802;28;20211;-74
2021/10/04 01:52:51;;;;;;;0.85;0.85;;;18.10;68.50;;;;;;5054680;28;20237;-71
2021/10/04 01:55:17;;;;;;;1.05;1.00;;;18.10;68.50;;;;;;5054259;28;20183;-70
2021/10/04 01:57:42;;;;;;;1.58;0.85;;;18.10;68.50;;;;;;5054703;28;20201;-70
2021/10/04 02:00:11;;;;;;;0.77;0.77;;;18.10;68.40;;;;;;5054427;28;20183;-70
2021/10/04 02:02:36;;;;;;;0.85;0.70;;;18.10;68.50;;;;;;5053880;28;20510;-70
2021/10/04 02:05:04;;;;;;;0.80;0.77;;;18.10;68.50;;;;;;5054478;28;20185;-73
2021/10/04 02:07:30;;;;;;;1.10;1.00;;;18.10;68.50;;;;;;5054597;28;20178;-73
2021/10/04 02:09:57;;;;;;;0.77;0.77;;;18.00;68.40;;;;;;5053431;28;20209;-71
2021/10/04 02:12:22;;;;;;;0.90;0.90;;;18.00;68.30;;;;;;5054457;28;20248;-70
2021/10/04 02:14:48;;;;;;;0.90;0.68;;;18.00;68.40;;;;;;5054242;28;20195;-68
2021/10/04 02:17:13;;;;;;;1.73;1.00;;;18.10;68.50;;;;;;5053670;28;20175;-71
2021/10/04 02:19:39;;;;;;;0.60;0.60;;;18.10;68.50;;;;;;5054222;28;20641;-71
2021/10/04 02:22:04;;;;;;;0.93;0.90;;;18.10;68.50;;;;;;5053486;28;20692;-73
2021/10/04 02:24:30;;;;;;;0.80;0.80;;;18.00;68.40;;;;;;5054399;28;20183;-73
2021/10/04 02:26:55;;;;;;;1.95;0.90;;;18.00;68.40;;;;;;5053997;28;20262;-71
2021/10/04 02:29:21;;;;;;;1.23;0.90;;;18.00;68.40;;;;;;5053718;28;20661;-70
2021/10/04 02:31:47;;;;;;;1.05;0.80;;;18.00;68.40;;;;;;5053934;28;20206;-68
2021/10/04 02:34:12;;;;;;;1.48;0.90;;;18.00;68.40;;;;;;5053713;28;20210;-70
2021/10/04 02:36:38;;;;;;;0.70;0.70;;;18.00;68.30;;;;;;5053369;28;20214;-72
2021/10/04 02:39:03;;;;;;;1.45;0.90;;;18.00;68.40;;;;;;5053814;28;20167;-73
2021/10/04 02:41:29;;;;;;;1.45;0.77;;;18.00;68.40;;;;;;5054063;28;20294;-74
2021/10/04 02:43:54;;;;;;;2.42;0.75;;;18.00;68.40;;;;;;5052521;28;20653;-72
2021/10/04 02:46:20;;;;;;;1.27;0.90;;;18.00;68.40;;;;;;5053786;28;20183;-73
2021/10/04 02:48:45;;;;;;;1.25;0.80;;;18.00;68.40;;;;;;5053953;28;20176;-74
2021/10/04 02:51:11;;;;;;;0.85;0.68;;;18.00;68.40;;;;;;5052802;28;20219;-71
2021/10/04 02:53:37;;;;;;;1.05;0.63;;;18.00;68.30;;;;;;5053844;28;20171;-72
2021/10/04 02:56:02;;;;;;;1.67;1.08;;;18.00;68.40;;;;;;5053453;28;20212;-70
2021/10/04 02:58:28;;;;;;;0.80;0.70;;;18.00;68.40;;;;;;5052836;28;20197;-72
2021/10/04 03:00:53;;;;;;;0.80;0.80;;;18.00;68.40;;;;;;5053149;28;20207;-70
2021/10/04 03:03:19;;;;;;;0.80;0.80;;;18.00;68.30;;;;;;5053570;28;20689;-72
2021/10/04 03:05:44;;;;;;;0.85;0.85;;;18.00;68.30;;;;;;5052663;28;20578;-75
2021/10/04 03:08:10;;;;;;;1.08;1.00;;;18.00;68.30;;;;;;5053343;28;20206;-72
2021/10/04 03:10:36;;;;;;;1.05;0.82;;;18.00;68.30;;;;;;5053221;28;20206;-72
2021/10/04 03:13:01;;;;;;;1.13;0.60;;;18.00;68.40;;;;;;5052282;28;20175;-71
2021/10/04 03:15:27;;;;;;;0.75;0.68;;;18.00;68.30;;;;;;5053436;28;20199;-71
2021/10/04 03:17:52;;;;;;;1.40;0.90;;;18.00;68.40;;;;;;5053111;28;20634;-70
2021/10/04 03:20:18;;;;;;;1.42;0.68;;;17.90;68.30;;;;;;5052628;28;20182;-72
2021/10/04 03:22:43;;;;;;;0.90;0.70;;;18.00;68.40;;;;;;5052941;28;20701;-74
2021/10/04 03:25:09;;;;;;;1.42;0.80;;;17.90;68.30;;;;;;5052961;28;20273;-72
2021/10/04 03:27:36;;;;;;;0.80;0.80;;;17.90;68.30;;;;;;5052560;28;20224;-72
2021/10/04 03:30:02;;;;;;;0.80;0.73;;;18.00;68.40;;;;;;5052641;28;20179;-69
2021/10/04 03:32:27;;;;;;;1.35;0.77;;;17.90;68.40;;;;;;5052500;28;20205;-71
2021/10/04 03:34:53;;;;;;;1.35;0.82;;;18.00;68.50;;;;;;5052968;28;20171;-72
2021/10/04 03:37:18;;;;;;;1.23;0.88;;;18.00;68.50;;;;;;5053157;28;20175;-72
2021/10/04 03:39:44;;;;;;;0.85;0.80;;;18.00;68.50;;;;;;5052282;28;20179;-75
2021/10/04 03:42:09;;;;;;;0.63;0.60;;;17.90;68.30;;;;;;5052628;28;20262;-74
2021/10/04 03:44:35;;;;;;;1.48;0.80;;;18.00;68.40;;;;;;5052778;28;20183;-75
2021/10/04 03:47:00;;;;;;;1.83;0.80;;;17.90;68.30;;;;;;5051817;28;20190;-77
2021/10/04 03:49:26;;;;;;;0.77;0.77;;;17.90;68.40;;;;;;5052906;28;20174;-73
2021/10/04 03:51:52;;;;;;;1.50;0.70;;;18.00;68.40;;;;;;5052614;28;20214;-74
2021/10/04 03:54:17;;;;;;;0.70;0.70;;;17.90;68.40;;;;;;5052085;28;20167;-71
2021/10/04 03:56:43;;;;;;;1.60;0.90;;;18.00;68.40;;;;;;5052107;28;20263;-71
2021/10/04 03:59:08;;;;;;;1.48;0.70;;;17.90;68.30;;;;;;5052265;28;20576;-71
2021/10/04 04:01:34;;;;;;;0.77;0.77;;;17.90;68.30;;;;;;5051940;28;20179;-71
2021/10/04 04:04:00;;;;;;;1.42;0.70;;;17.90;68.40;;;;;;5052357;28;20171;-73
2021/10/04 04:06:25;;;;;;;2.08;1.00;;;17.90;68.40;;;;;;5052941;28;20699;-73
2021/10/04 04:08:51;;;;;;;0.93;0.85;;;17.90;68.30;;;;;;5051683;28;20233;-73
2021/10/04 04:11:16;;;;;;;1.88;0.85;;;17.90;68.30;;;;;;5052612;28;20245;-71
2021/10/04 04:13:42;;;;;;;0.73;0.70;;;17.90;68.40;;;;;;5052782;28;20171;-70
2021/10/04 04:16:07;;;;;;;1.20;0.70;;;17.90;68.40;;;;;;5051464;28;20175;-71
2021/10/04 04:18:33;;;;;;;1.10;0.70;;;17.90;68.30;;;;;;5052804;28;20262;-72
2021/10/04 04:20:58;;;;;;;1.00;0.80;;;17.90;68.30;;;;;;5052314;28;20200;-73
2021/10/04 04:23:24;;;;;;;0.82;0.82;;;17.90;68.30;;;;;;5051621;28;20215;-74
2021/10/04 04:25:49;;;;;;;1.23;0.77;;;17.90;69.10;;;;;;5052397;28;20225;-72
2021/10/04 04:28:15;;;;;;;1.30;0.60;;;17.90;68.40;;;;;;5052516;28;20191;-71
2021/10/04 04:30:40;;;;;;;0.70;0.70;;;17.90;68.30;;;;;;5051552;28;20721;-68
2021/10/04 04:33:06;;;;;;;1.25;0.63;;;17.90;68.40;;;;;;5052048;28;20179;-71
2021/10/04 04:35:31;;;;;;;1.55;0.70;;;17.90;68.40;;;;;;5051809;28;20966;-72
2021/10/04 04:37:57;;;;;;;1.25;0.60;;;17.90;68.40;;;;;;5051892;28;20182;-72
2021/10/04 04:40:22;;;;;;;1.08;0.85;;;17.80;68.30;;;;;;5052548;28;20182;-78
2021/10/04 04:42:48;;;;;;;1.20;0.88;;;17.90;68.50;;;;;;5051478;28;20174;-74
2021/10/04 04:45:16;;;;;;;0.77;0.75;;;17.90;68.40;;;;;;5052194;28;20229;-76
2021/10/04 04:47:41;;;;;;;0.70;0.70;;;17.80;68.30;;;;;;5052481;28;20254;-77
2021/10/04 04:50:07;;;;;;;0.60;0.60;;;17.90;68.40;;;;;;5051250;28;20240;-73
2021/10/04 04:52:33;;;;;;;0.55;0.55;;;17.80;68.30;;;;;;5052224;28;20245;-74
2021/10/04 04:54:58;;;;;;;0.90;0.80;;;17.80;68.30;;;;;;5052058;28;20182;-71
2021/10/04 04:57:24;;;;;;;0.70;0.70;;;17.80;68.30;;;;;;5051597;28;20175;-72
2021/10/04 04:59:51;;;;;;;0.60;0.60;;;17.80;68.30;;;;;;5051729;28;20253;-69
2021/10/04 05:02:17;;;;;;;1.50;0.80;;;17.80;68.30;;;;;;5052207;28;20184;-72
2021/10/04 05:04:42;;;;;;;0.88;0.80;;;17.80;68.20;;;;;;5051634;28;20224;-74
2021/10/04 05:07:08;;;;;;;0.90;0.90;;;17.80;68.20;;;;;;5052897;28;20230;-72
2021/10/04 05:09:33;;;;;;;0.60;0.60;;;17.80;68.20;;;;;;5055810;28;20171;-73
2021/10/04 05:11:59;;;;;;;1.02;0.80;;;17.80;68.30;;;;;;5054582;28;20238;-70
2021/10/04 05:14:25;;;;;;;0.90;0.60;;;17.80;68.30;;;;;;5055579;28;20182;-71
2021/10/04 05:16:50;;;;;;;0.80;0.80;;;17.80;68.30;;;;;;5055168;28;20267;-72
2021/10/04 05:19:16;;;;;;;0.90;0.70;;;17.80;68.30;;;;;;5054919;28;20209;-72
2021/10/04 05:21:41;;;;;;;1.05;0.90;;;17.80;68.30;;;;;;5055466;28;20175;-74
2021/10/04 05:24:07;;;;;;;1.10;0.82;;;17.80;68.30;;;;;;5054870;28;20284;-71
2021/10/04 05:26:32;;;;;;;0.93;0.80;;;17.80;69.20;;;;;;5054637;28;20267;-72
2021/10/04 05:28:58;;;;;;;1.10;0.80;;;17.80;68.30;;;;;;5054906;28;20175;-72
2021/10/04 05:31:23;;;;;;;0.70;0.70;;;17.80;68.30;;;;;;5055125;28;20688;-68
2021/10/04 05:33:49;;;;;;;1.33;0.90;;;17.80;68.30;;;;;;5054479;28;20179;-71
2021/10/04 05:36:15;;;;;;;1.73;0.90;;;17.80;68.40;;;;;;5055156;28;20207;-71
2021/10/04 05:38:41;;;;;;;1.67;1.02;;;17.80;68.30;;;;;;5055311;28;20217;-73
2021/10/04 05:41:06;;;;;;;0.60;0.60;;;17.80;68.40;;;;;;5054250;28;20175;-76
2021/10/04 05:43:32;;;;;;;1.02;0.65;;;17.80;68.40;;;;;;5055065;28;20259;-73
2021/10/04 05:46:01;;;;;;;0.70;0.70;;;17.80;68.30;;;;;;5054285;28;20186;-77
2021/10/04 05:48:27;;;;;;;0.60;0.60;;;17.80;68.30;;;;;;5055070;28;20382;-78
2021/10/04 05:50:52;;;;;;;1.15;1.05;;;17.80;68.30;;;;;;5054539;28;20256;-73
2021/10/04 05:53:18;;;;;;;0.50;0.50;;;17.80;68.30;;;;;;5054244;28;20178;-74
2021/10/04 05:55:45;;;;;;;0.75;0.65;;;17.80;68.30;;;;;;5055091;28;20179;-71
2021/10/04 05:58:10;;;;;;;1.20;0.75;;;17.80;68.40;;;;;;5054221;28;20712;-72
2021/10/04 06:00:36;;;;;;;0.77;0.77;;;17.80;68.30;;;;;;5054181;28;20281;-74
2021/10/04 06:03:01;;;;;;;1.00;0.68;;;17.80;68.40;;;;;;5054614;28;20181;-73
2021/10/04 06:05:27;;;;;;;0.55;0.55;;;17.80;68.40;;;;;;5054779;28;20179;-77
2021/10/04 06:07:52;;;;;;;0.73;0.70;;;17.80;68.40;;;;;;5053617;28;20179;-72
2021/10/04 06:10:18;;;;;;;0.68;0.68;;;17.80;68.40;;;;;;5054344;28;20693;-73
2021/10/04 06:12:43;;;;;;;1.25;0.60;;;17.80;68.40;;;;;;5054297;28;20179;-70
2021/10/04 06:15:09;;;;;;;1.38;0.70;;;17.80;68.40;;;;;;5053530;28;20178;-71
2021/10/04 06:17:36;;;;;;;0.93;0.60;;;17.80;68.40;;;;;;5054381;28;20185;-72
2021/10/04 06:20:01;;;;;;;1.00;0.70;;;17.70;68.30;;;;;;5053431;28;20182;-72
2021/10/04 06:22:27;;;;;;;0.70;0.70;;;17.80;68.50;;;;;;5053341;28;20207;-76
2021/10/04 06:24:53;;;;;;;0.82;0.82;;;17.80;68.50;;;;;;5054176;28;20213;-73
2021/10/04 06:27:19;;;;;;;2.05;0.80;;;17.70;68.30;;;;;;5054202;28;20171;-73
2021/10/04 06:29:44;;;;;;;0.82;0.75;;;17.80;68.40;;;;;;5053345;28;20183;-70
2021/10/04 06:32:10;;;;;;;0.70;0.70;;;17.70;68.40;;;;;;5053895;28;20218;-70
2021/10/04 06:34:36;;;;;;;0.60;0.60;;;17.70;68.40;;;;;;5053998;28;20199;-71
2021/10/04 06:37:02;;;;;;;0.80;0.70;;;17.70;68.40;;;;;;5051934;28;20178;-75
2021/10/04 06:39:28;;;;;;;1.75;1.15;;;17.70;68.30;;;;;;5054102;28;20172;-73
2021/10/04 06:41:53;;;;;;;0.90;0.70;;;17.70;68.30;;;;;;5053445;28;20175;-77
2021/10/04 06:44:19;;;;;;;1.73;0.90;;;17.70;68.30;;;;;;5053424;28;20219;-76
2021/10/04 06:46:44;;;;;;;0.70;0.70;;;17.70;68.20;;;;;;5053853;28;20545;-74
2021/10/04 06:49:10;;;;;;;2.20;0.90;;;17.70;68.30;;;;;;5052958;28;20183;-71
2021/10/04 06:51:35;;;;;;;1.25;0.93;;;17.70;68.20;;;;;;5053764;28;20210;-70
2021/10/04 06:54:01;;;;;;;2.83;1.20;;;17.70;68.30;;;;;;5053377;28;20191;-70
2021/10/04 06:56:27;;;;;;;4.78;1.08;;;17.80;68.50;;;;;;5053027;28;20214;-71
2021/10/04 06:58:52;;;;;;;3.80;0.85;;;17.80;68.60;;;;;;5053400;28;20586;-68
2021/10/04 07:01:18;;;;;;;5.30;0.70;;;17.80;68.50;;;;;;5053278;28;20174;-67
2021/10/04 07:03:43;;;;;;;1.98;0.95;;;17.80;68.30;;;;;;5052618;28;20178;-70
2021/10/04 07:06:09;;;;;;;4.13;1.25;;;17.80;68.10;;;;;;5053263;28;20179;-69
2021/10/04 07:08:35;;;;;;;3.28;1.10;;;17.80;68.10;;;;;;5053282;28;20199;-69
2021/10/04 07:11:00;;;;;;;4.93;1.23;;;17.80;68.10;;;;;;5052158;28;20678;-69
2021/10/04 07:13:26;;;;;;;4.72;1.77;;;17.90;68.20;;;;;;5053479;28;20178;-68
2021/10/04 07:15:51;;;;;;;2.30;0.90;;;17.90;68.10;;;;;;5053195;28;20638;-69
2021/10/04 07:18:17;;;;;;;2.75;0.73;;;17.90;68.10;;;;;;5052427;28;20340;-69
2021/10/04 07:20:42;;;;;;;3.17;1.10;;;17.80;68.10;;;;;;5053398;28;20265;-70
2021/10/04 07:23:08;;;;;;;7.07;1.40;;;17.90;68.20;;;;;;5052778;28;20310;-69
2021/10/04 07:25:33;;;;;;;2.47;1.17;;;17.90;68.20;;;;;;5052237;28;20183;-73
2021/10/04 07:28:00;;;;;;;5.40;1.25;;;17.80;68.10;;;;;;5052780;28;20200;-69
2021/10/04 07:30:26;;;;;;;2.00;0.90;;;17.90;68.40;;;;;;5052076;28;20184;-68
2021/10/04 07:32:51;;;;;;;2.38;1.00;;;17.80;68.50;;;;;;5052079;28;20179;-69
2021/10/04 07:35:17;;;;;;;4.15;1.30;;;17.80;68.40;;;;;;5053141;28;20645;-70
2021/10/04 07:37:42;;;;;;;3.92;1.00;;;17.80;68.40;;;;;;5053058;28;20167;-70
2021/10/04 07:40:08;;;;;;;16.48;2.08;;;17.80;68.30;;;;;;5051882;28;20175;-70
2021/10/04 07:42:34;;;;;;;7.00;1.60;;;17.80;68.50;;;;;;5053099;28;20179;-72
2021/10/04 07:45:00;;;;;;;7.00;1.42;;;17.80;68.70;;;;;;5052577;28;20175;-72
2021/10/04 07:47:25;;;;;;;3.35;0.93;;;17.80;68.60;;;;;;5052230;28;20206;-71
2021/10/04 07:49:51;;;;;;;5.43;1.95;;;17.80;68.70;;;;;;5052546;28;20203;-72
2021/10/04 07:52:16;;;;;;;3.90;1.30;;;17.90;68.70;;;;;;5052862;28;20215;-70
2021/10/04 07:54:42;;;;;;;4.78;1.10;;;17.80;68.50;;;;;;5052039;28;20167;-74
2021/10/04 07:57:12;;;;;;;7.85;1.75;;;17.80;68.50;;;;;;5052660;28;20221;-71
2021/10/04 07:59:39;;;;;;;2.97;1.05;;;17.80;68.60;;;;;;5052012;28;20262;-72
2021/10/04 08:02:05;;;;;;;2.63;1.10;;;17.80;68.60;;;;;;5051366;28;20175;-71
2021/10/04 08:04:31;;;;;;;1.25;0.85;;;17.80;68.70;;;;;;5052775;28;20244;-72
2021/10/04 08:06:56;;;;;;;4.07;1.02;;;17.80;68.80;;;;;;5051733;28;20261;-73
2021/10/04 08:09:22;;;;;;;1.73;1.02;;;17.80;68.80;;;;;;5052596;28;20194;-71
2021/10/04 08:11:47;;;;;;;4.38;1.20;;;17.80;68.80;;;;;;5052514;28;20219;-71
2021/10/04 08:14:13;;;;;;;3.70;1.27;;;17.80;68.80;;;;;;5051995;28;20168;-71
2021/10/04 08:16:40;;;;;;;4.18;1.15;;;17.90;68.70;;;;;;5052732;28;20171;-71
2021/10/04 08:19:05;;;;;;;3.22;1.20;;;17.90;68.40;;;;;;5052253;28;20213;-73
2021/10/04 08:21:31;;;;;;;1.10;1.00;;;18.00;68.30;;;;;;5051902;28;20210;-74
2021/10/04 08:23:59;;;;;;;2.65;0.90;;;18.00;68.10;;;;;;5051996;28;20249;-72
2021/10/04 08:26:25;;;;;;;2.63;1.27;;;18.00;68.10;;;;;;5052566;28;20179;-73
2021/10/04 08:28:50;;;;;;;2.00;1.00;;;17.90;68.20;;;;;;5051656;28;20637;-71
2021/10/04 08:31:16;;;;;;;3.28;1.02;;;18.00;68.40;;;;;;5052292;28;20541;-71
2021/10/04 08:33:41;;;;;;;3.15;1.10;;;18.00;68.20;;;;;;5052429;28;20180;-71
2021/10/04 08:36:07;;;;;;;2.95;0.90;;;18.00;68.10;;;;;;5051423;28;20179;-72
2021/10/04 08:38:32;;;;;;;2.45;1.10;;;18.10;68.80;;;;;;5052299;28;20629;-72
2021/10/04 08:40:58;;;;;;;2.53;0.90;;;18.20;67.80;;;;;;5052203;28;20179;-73
2021/10/04 08:43:23;;;;;;;0.90;0.77;;;18.30;67.80;;;;;;5053752;28;20541;-73
2021/10/04 08:45:49;;;;;;;1.23;0.90;;;18.30;67.50;;;;;;5055959;28;20257;-72
2021/10/04 08:48:14;;;;;;;1.08;0.95;;;18.40;67.50;;;;;;5054941;28;20277;-72
2021/10/04 08:50:40;;;;;;;2.30;1.15;;;18.40;67.40;;;;;;5055710;28;20618;-72
2021/10/04 08:53:06;;;;;;;2.53;0.88;;;18.50;67.40;;;;;;5055538;28;20182;-71
2021/10/04 08:55:32;;;;;;;2.38;1.00;;;18.50;67.40;;;;;;5055918;28;20201;-72
2021/10/04 08:57:57;;;;;;;1.98;1.27;;;18.50;67.40;;;;;;5054862;28;20653;-71
2021/10/04 09:00:23;;;;;;;2.40;0.95;;;18.50;67.30;;;;;;5055881;28;20167;-72
2021/10/04 09:02:48;;;;;;;1.70;0.90;;;18.60;67.40;;;;;;5054981;28;20212;-73
2021/10/04 09:05:25;;;;;;;3.97;1.10;;;18.60;67.30;;;;;;5054607;28;20163;-72
2021/10/04 09:07:53;;;;;;;1.70;0.82;;;18.60;68.20;;;;;;5055385;28;20179;-72
2021/10/04 09:10:20;;;;;;;2.75;0.90;;;18.60;67.30;;;;;;5055047;28;20186;-69
2021/10/04 09:12:48;;;;;;;1.83;1.00;;;18.70;67.40;;;;;;5055672;28;20258;-71
2021/10/04 09:15:24;;;;;;;1.90;0.88;;;18.70;67.40;;;;;;5055581;28;20175;-71
2021/10/04 09:17:49;;;;;;;1.25;0.80;;;18.70;67.30;;;;;;5054651;28;20645;-71
2021/10/04 09:20:16;;;;;;;3.67;1.10;;;18.80;67.30;;;;;;5055470;28;20175;-73
2021/10/04 09:22:41;;;;;;;2.90;0.90;;;18.80;67.30;;;;;;5054002;28;20244;-72
2021/10/04 09:25:07;;;;;;;1.15;0.80;;;18.80;67.30;;;;;;5054407;28;20489;-72
2021/10/04 09:27:37;;;;;;;2.10;0.90;;;18.90;67.30;;;;;;5055384;28;20179;-71
2021/10/04 09:30:11;;;;;;;1.52;0.80;;;18.90;67.30;;;;;;5054899;28;20518;-70
2021/10/04 09:32:38;;;;;;;1.02;0.70;;;18.90;67.30;;;;;;5054369;28;20622;-71
2021/10/04 09:35:21;;;;;;;1.73;0.82;;;18.90;67.30;;;;;;5055081;28;20183;-72
2021/10/04 09:37:59;;;;;;;1.10;0.80;;;18.90;67.30;;;;;;5055111;28;20661;-72
2021/10/04 09:40:36;;;;;;;1.20;0.85;;;19.00;67.30;;;;;;5055345;28;20183;-72
2021/10/04 09:43:04;;;;;;;1.65;0.90;;;19.00;67.30;;;;;;5054839;28;20175;-72
2021/10/04 09:45:30;;;;;;;1.40;0.77;;;19.00;67.30;;;;;;5054509;28;20510;-72
2021/10/04 09:47:56;;;;;;;2.22;1.33;;;19.10;67.30;;;;;;5054904;28;20675;-72
2021/10/04 09:50:28;;;;;;;1.30;0.90;;;19.10;67.20;;;;;;5053762;28;20278;-71
2021/10/04 09:52:54;;;;;;;1.45;0.93;;;19.10;67.20;;;;;;5059714;28;20259;-72
2021/10/04 09:55:22;;;;;;;2.30;1.00;;;19.10;67.20;;;;;;5056237;28;20175;-71
2021/10/04 09:58:02;;;;;;;1.52;0.88;;;19.10;67.20;;;;;;5074335;28;20567;-70
2021/10/04 10:00:33;;;;;;;2.92;0.70;;;19.20;67.20;;;;;;5066855;28;20183;-70
2021/10/04 10:02:58;;;;;;;2.08;1.05;;;19.20;67.30;;;;;;5054586;28;20228;-70
2021/10/04 10:05:25;;;;;;;1.33;0.80;;;19.20;67.20;;;;;;5054738;28;20179;-71
2021/10/04 10:07:50;;;;;;;1.58;0.80;;;19.20;67.20;;;;;;5053645;28;20201;-71
2021/10/04 10:10:16;;;;;;;1.73;0.80;;;19.20;67.20;;;;;;5072070;28;20696;-69
2021/10/04 10:12:42;;;;;;;2.08;0.77;;;19.30;67.20;;;;;;5074557;28;20218;-69
2021/10/04 10:15:07;;;;;;;2.83;0.80;;;19.30;67.20;;;;;;5073580;28;20223;-69
2021/10/04 10:17:34;;;;;;;0.60;0.60;;;19.30;67.20;;;;;;5074573;28;20175;-69
2021/10/04 10:19:59;;;;;;;2.05;0.80;;;19.30;67.00;;;;;;5072974;28;20174;-70
2021/10/04 10:22:29;;;;;;;0.98;0.82;;;19.40;67.10;;;;;;5055741;28;20222;-70
2021/10/04 10:24:58;;;;;;;2.35;0.95;;;19.40;67.10;;;;;;5073864;28;20596;-72
2021/10/04 10:27:55;;;;;;;1.60;1.00;;;19.40;67.10;;;;;;5055247;28;20175;-69
2021/10/04 10:30:23;;;;;;;1.20;0.88;;;19.40;67.10;;;;;;5041970;28;20222;-68
2021/10/04 10:32:49;;;;;;;1.13;0.75;;;19.40;67.10;;;;;;5053852;28;20193;-70
2021/10/04 10:35:14;;;;;;;1.25;0.82;;;19.40;67.10;;;;;;5053193;28;20167;-69
2021/10/04 10:37:50;;;;;;;1.08;0.77;;;19.40;67.00;;;;;;5054070;28;20171;-70
2021/10/04 10:40:20;;;;;;;1.52;0.77;;;19.40;67.00;;;;;;5053302;28;20187;-72
2021/10/04 10:43:03;;;;;;;1.92;0.95;;;19.50;67.00;;;;;;5053313;28;20179;-71
2021/10/04 10:45:37;;;;;;;1.88;0.80;;;19.50;67.00;;;;;;5053766;28;20190;-70
2021/10/04 10:48:03;;;;;;;5.50;0.90;;;19.60;67.00;;;;;;5053665;28;20179;-71
2021/10/04 10:50:30;;;;;;;2.25;0.90;;;19.60;67.00;;;;;;5053071;28;20664;-71
2021/10/04 10:52:56;;;;;;;1.52;0.82;;;19.60;66.90;;;;;;5053534;28;20187;-71
2021/10/04 10:55:21;;;;;;;3.45;1.50;;;19.60;67.00;;;;;;5052901;28;20190;-70
2021/10/04 10:57:54;;;;;;;1.15;0.75;;;19.60;66.90;;;;;;5053564;28;20171;-71
2021/10/04 11:00:37;;;;;;;1.23;0.85;;;19.60;66.90;;;;;;5061630;28;20240;-70
2021/10/04 11:03:21;;;;;;;2.97;0.85;;;19.60;66.80;;;;;;5072623;28;20182;-71
2021/10/04 11:05:51;;;;;;;1.98;0.93;;;19.70;66.80;;;;;;5073516;28;20175;-69
2021/10/04 11:08:30;;;;;;;2.90;0.93;;;19.60;66.80;;;;;;5073378;28;20178;-67
2021/10/04 11:10:56;;;;;;;2.25;0.80;;;19.60;66.80;;;;;;5072150;28;20290;-67
2021/10/04 11:13:29;;;;;;;1.35;0.90;;;19.70;66.70;;;;;;5073404;28;20628;-66
2021/10/04 11:15:59;;;;;;;2.60;1.13;;;19.80;66.60;;;;;;5073057;28;20181;-68
2021/10/04 11:18:35;;;;;;;3.00;0.93;;;19.80;66.60;;;;;;5072508;28;20170;-68
2021/10/04 11:21:02;;;;;;;1.10;0.60;;;19.80;66.50;;;;;;5072808;28;20292;-69
2021/10/04 11:23:27;;;;;;;1.38;0.77;;;19.70;66.50;;;;;;5072761;28;20275;-67
2021/10/04 11:25:53;;;;;;;3.10;0.70;;;19.80;66.70;;;;;;5072703;28;20225;-70
2021/10/04 11:28:29;;;;;;;1.65;0.95;;;19.80;66.60;;;;;;5073144;28;20257;-68
2021/10/04 11:30:56;;;;;;;2.78;0.70;;;19.80;66.50;;;;;;5072099;28;20300;-67
2021/10/04 11:33:23;;;;;;;1.50;0.80;;;19.80;66.50;;;;;;5072601;28;20261;-68
2021/10/04 11:36:02;;;;;;;3.78;1.10;;;19.90;66.50;;;;;;5072864;28;20178;-70
2021/10/04 11:38:28;;;;;;;1.15;0.90;;;19.90;66.40;;;;;;5072370;28;20182;-71
2021/10/04 11:40:55;;;;;;;1.88;0.63;;;19.90;66.20;;;;;;5072672;28;20178;-73
2021/10/04 11:43:20;;;;;;;6.15;1.05;;;20.00;66.30;;;;;;5072553;28;20253;-72
2021/10/04 11:45:47;;;;;;;2.47;1.05;;;20.00;66.30;;;;;;5072240;28;20197;-75
2021/10/04 11:48:29;;;;;;;6.53;1.42;;;19.90;66.30;;;;;;5072552;28;20656;-70
2021/10/04 11:50:55;;;;;;;3.08;1.35;;;19.90;66.30;;;;;;5072665;28;20316;-66
2021/10/04 11:53:20;;;;;;;4.93;1.35;;;19.90;66.30;;;;;;5072119;28;20174;-67
2021/10/04 11:56:03;;;;;;;5.55;1.02;;;19.80;66.30;;;;;;5055129;28;20171;-65
2021/10/04 11:58:28;;;;;;;4.68;1.10;;;19.80;66.60;;;;;;5072622;28;20185;-66
2021/10/04 12:00:54;;;;;;;5.88;1.58;;;19.70;66.60;;;;;;5058757;28;20555;-75
2021/10/04 12:03:30;;;;;;;7.18;1.42;;;19.80;66.70;;;;;;5052884;28;20207;-73
2021/10/04 12:05:57;;;;;;;4.10;1.08;;;19.90;66.60;;;;;;5051894;28;20574;-74
2021/10/04 12:08:23;;;;;;;6.55;1.27;;;19.90;66.40;;;;;;5052592;28;20577;-72
2021/10/04 12:11:00;;;;;;;4.55;1.15;;;19.90;66.30;;;;;;5052124;28;20210;-65
2021/10/04 12:13:30;;;;;;;3.92;1.00;;;19.90;66.40;;;;;;5052123;28;20218;-66
2021/10/04 12:15:58;;;;;;;2.65;1.00;;;19.90;66.40;;;;;;5051427;28;20164;-68
2021/10/04 12:18:27;;;;;;;8.55;1.40;;;19.90;66.40;;;;;;5038364;28;20630;-71
2021/10/04 12:21:27;;;;;;;4.35;0.88;;;19.90;66.40;;;;;;5054587;28;20175;-68
2021/10/04 12:24:11;;;;;;;2.40;1.10;;;19.90;66.40;;;;;;5057777;28;20223;-68
2021/10/04 12:26:50;;;;;;;4.13;0.88;;;19.80;66.60;;;;;;5056607;28;20179;-68
2021/10/04 12:29:35;;;;;;;2.80;0.70;;;19.90;66.80;;;;;;5056465;28;20167;-67
2021/10/04 12:32:20;;;;;;;3.10;0.90;;;19.90;66.60;;;;;;5056018;28;20211;-67
2021/10/04 12:35:18;;;;;;;2.92;1.10;;;19.90;66.60;;;;;;5055703;28;20183;-67
2021/10/04 12:37:57;;;;;;;4.95;1.00;;;19.90;66.60;;;;;;5056454;28;20171;-68
2021/10/04 12:40:29;;;;;;;3.20;0.90;;;19.90;66.70;;;;;;5056451;28;20174;-68
2021/10/04 12:43:01;;;;;;;4.30;0.80;;;19.90;66.80;;;;;;5054959;28;20209;-69
2021/10/04 12:45:27;;;;;;;3.97;1.20;;;19.90;66.70;;;;;;5053352;28;20205;-68
2021/10/04 12:48:00;;;;;;;3.10;0.90;;;19.90;67.00;;;;;;5053696;28;20266;-68